< < Back
Terminal Aerodrome Forecast


Current Version              Previous Versions:   1  2  3  4  5  6  7  8  9  

Terminal Aerodrome Forecast

477
FTUS42 KTAE 020528
TAFTLH
TAF
KTLH 020528Z 0206/0306 25006KT P6SM SCT250
     FM020900 23003KT 5SM BR SCT250
     FM021300 26006KT P6SM FEW040
     FM021700 25009KT P6SM VCTS SCT040CB
     FM030000 27005KT P6SM OVC100=

Latest METAR

048
SAUS80 KWBC 020800 RRB
MTRTLH
METAR KTLH 020753Z AUTO 24004KT 10SM CLR 25/23 A3005 RMK AO2 SLP176
T02500228 TSNO


USA.gov is the U.S. government's official web portal to all federal, state and local government web resources and services.